sensor_id;sensor_type;location;lat;lon;timestamp;P1;durP1;ratioP1;P2;durP2;ratioP2
12844;SDS011;68700;48.534;9.196;2023-06-22T00:02:52;9.67;;;8.10;;
12844;SDS011;68700;48.534;9.196;2023-06-22T00:06:14;9.57;;;8.57;;
12844;SDS011;68700;48.534;9.196;2023-06-22T00:09:37;9.80;;;8.87;;
12844;SDS011;68700;48.534;9.196;2023-06-22T00:12:59;9.97;;;8.07;;
12844;SDS011;68700;48.534;9.196;2023-06-22T00:16:21;9.97;;;8.40;;
12844;SDS011;68700;48.534;9.196;2023-06-22T00:19:42;9.83;;;8.67;;
12844;SDS011;68700;48.534;9.196;2023-06-22T00:23:05;9.33;;;8.10;;
12844;SDS011;68700;48.534;9.196;2023-06-22T00:26:29;8.97;;;8.13;;
12844;SDS011;68700;48.534;9.196;2023-06-22T00:29:51;10.20;;;8.77;;
12844;SDS011;68700;48.534;9.196;2023-06-22T00:33:13;9.90;;;8.83;;
12844;SDS011;68700;48.534;9.196;2023-06-22T00:36:36;10.37;;;8.73;;
12844;SDS011;68700;48.534;9.196;2023-06-22T00:40:00;9.77;;;8.77;;
12844;SDS011;68700;48.534;9.196;2023-06-22T00:43:24;10.60;;;8.63;;
12844;SDS011;68700;48.534;9.196;2023-06-22T00:46:46;13.03;;;9.70;;
12844;SDS011;68700;48.534;9.196;2023-06-22T00:50:08;9.73;;;8.83;;
12844;SDS011;68700;48.534;9.196;2023-06-22T00:53:32;10.40;;;9.30;;
12844;SDS011;68700;48.534;9.196;2023-06-22T00:56:57;10.70;;;9.60;;
12844;SDS011;68700;48.534;9.196;2023-06-22T01:00:21;11.27;;;9.73;;
12844;SDS011;68700;48.534;9.196;2023-06-22T01:03:44;12.90;;;9.57;;
12844;SDS011;68700;48.534;9.196;2023-06-22T01:07:08;9.10;;;8.20;;
12844;SDS011;68700;48.534;9.196;2023-06-22T01:10:38;12.33;;;10.10;;
12844;SDS011;68700;48.534;9.196;2023-06-22T01:14:06;10.77;;;9.67;;
12844;SDS011;68700;48.534;9.196;2023-06-22T01:17:34;12.70;;;9.60;;
12844;SDS011;68700;48.534;9.196;2023-06-22T01:20:57;9.87;;;8.40;;
12844;SDS011;68700;48.534;9.196;2023-06-22T01:24:23;12.53;;;9.23;;
12844;SDS011;68700;48.534;9.196;2023-06-22T01:27:50;10.47;;;9.20;;
12844;SDS011;68700;48.534;9.196;2023-06-22T01:31:23;10.30;;;9.23;;
12844;SDS011;68700;48.534;9.196;2023-06-22T01:34:46;9.53;;;8.63;;
12844;SDS011;68700;48.534;9.196;2023-06-22T01:38:09;10.73;;;9.63;;
12844;SDS011;68700;48.534;9.196;2023-06-22T01:41:33;10.57;;;9.57;;
12844;SDS011;68700;48.534;9.196;2023-06-22T01:44:56;8.97;;;8.07;;
12844;SDS011;68700;48.534;9.196;2023-06-22T01:48:20;15.83;;;9.93;;
12844;SDS011;68700;48.534;9.196;2023-06-22T01:51:43;14.53;;;11.10;;
12844;SDS011;68700;48.534;9.196;2023-06-22T01:55:05;10.40;;;9.43;;
12844;SDS011;68700;48.534;9.196;2023-06-22T01:58:28;13.60;;;10.20;;
12844;SDS011;68700;48.534;9.196;2023-06-22T02:01:53;12.20;;;10.10;;
12844;SDS011;68700;48.534;9.196;2023-06-22T02:05:20;13.33;;;10.00;;
12844;SDS011;68700;48.534;9.196;2023-06-22T02:08:47;11.07;;;9.97;;
12844;SDS011;68700;48.534;9.196;2023-06-22T02:12:12;10.77;;;9.20;;
12844;SDS011;68700;48.534;9.196;2023-06-22T02:15:38;12.50;;;11.20;;
12844;SDS011;68700;48.534;9.196;2023-06-22T02:19:00;15.17;;;12.30;;
12844;SDS011;68700;48.534;9.196;2023-06-22T02:22:25;15.53;;;13.20;;
12844;SDS011;68700;48.534;9.196;2023-06-22T02:25:47;14.10;;;12.03;;
12844;SDS011;68700;48.534;9.196;2023-06-22T02:29:09;11.60;;;10.40;;
12844;SDS011;68700;48.534;9.196;2023-06-22T02:32:30;12.73;;;11.43;;
12844;SDS011;68700;48.534;9.196;2023-06-22T02:35:54;16.97;;;11.77;;
12844;SDS011;68700;48.534;9.196;2023-06-22T02:39:18;14.17;;;12.47;;
12844;SDS011;68700;48.534;9.196;2023-06-22T02:42:42;12.43;;;11.03;;
12844;SDS011;68700;48.534;9.196;2023-06-22T02:46:04;11.27;;;9.97;;
12844;SDS011;68700;48.534;9.196;2023-06-22T02:49:26;13.27;;;10.73;;
12844;SDS011;68700;48.534;9.196;2023-06-22T02:52:48;12.20;;;10.90;;
12844;SDS011;68700;48.534;9.196;2023-06-22T02:56:11;12.63;;;11.30;;
12844;SDS011;68700;48.534;9.196;2023-06-22T02:59:33;13.43;;;12.03;;
12844;SDS011;68700;48.534;9.196;2023-06-22T03:02:55;15.80;;;10.80;;
12844;SDS011;68700;48.534;9.196;2023-06-22T03:06:17;11.70;;;10.50;;
12844;SDS011;68700;48.534;9.196;2023-06-22T03:09:43;16.07;;;13.47;;
12844;SDS011;68700;48.534;9.196;2023-06-22T03:13:06;15.60;;;12.20;;
12844;SDS011;68700;48.534;9.196;2023-06-22T03:16:28;13.07;;;11.67;;
12844;SDS011;68700;48.534;9.196;2023-06-22T03:19:50;12.87;;;11.50;;
12844;SDS011;68700;48.534;9.196;2023-06-22T03:23:12;14.77;;;12.50;;
12844;SDS011;68700;48.534;9.196;2023-06-22T03:26:34;14.63;;;11.87;;
12844;SDS011;68700;48.534;9.196;2023-06-22T03:29:57;15.83;;;12.27;;
12844;SDS011;68700;48.534;9.196;2023-06-22T03:33:19;13.67;;;12.13;;
12844;SDS011;68700;48.534;9.196;2023-06-22T03:36:42;13.87;;;12.47;;
12844;SDS011;68700;48.534;9.196;2023-06-22T03:40:05;13.40;;;10.97;;
12844;SDS011;68700;48.534;9.196;2023-06-22T03:43:28;13.27;;;11.13;;
12844;SDS011;68700;48.534;9.196;2023-06-22T03:46:51;17.87;;;11.00;;
12844;SDS011;68700;48.534;9.196;2023-06-22T03:50:13;13.67;;;11.17;;
12844;SDS011;68700;48.534;9.196;2023-06-22T03:53:35;13.93;;;11.03;;
12844;SDS011;68700;48.534;9.196;2023-06-22T03:56:57;12.93;;;10.83;;
12844;SDS011;68700;48.534;9.196;2023-06-22T04:00:19;15.90;;;10.93;;
12844;SDS011;68700;48.534;9.196;2023-06-22T04:03:42;14.20;;;10.30;;
12844;SDS011;68700;48.534;9.196;2023-06-22T04:07:04;12.70;;;10.43;;
12844;SDS011;68700;48.534;9.196;2023-06-22T04:10:26;12.40;;;11.10;;
12844;SDS011;68700;48.534;9.196;2023-06-22T04:13:48;14.00;;;11.27;;
12844;SDS011;68700;48.534;9.196;2023-06-22T04:17:11;15.87;;;11.10;;
12844;SDS011;68700;48.534;9.196;2023-06-22T04:20:35;12.83;;;11.47;;
12844;SDS011;68700;48.534;9.196;2023-06-22T04:23:57;15.47;;;11.90;;
12844;SDS011;68700;48.534;9.196;2023-06-22T04:27:19;16.13;;;11.90;;
12844;SDS011;68700;48.534;9.196;2023-06-22T04:30:43;18.13;;;13.63;;
12844;SDS011;68700;48.534;9.196;2023-06-22T04:34:07;14.77;;;13.27;;
12844;SDS011;68700;48.534;9.196;2023-06-22T04:37:30;19.07;;;14.53;;
12844;SDS011;68700;48.534;9.196;2023-06-22T04:40:52;17.53;;;12.97;;
12844;SDS011;68700;48.534;9.196;2023-06-22T04:44:15;13.33;;;11.57;;
12844;SDS011;68700;48.534;9.196;2023-06-22T04:47:43;15.87;;;13.30;;
12844;SDS011;68700;48.534;9.196;2023-06-22T04:51:05;18.63;;;14.20;;
12844;SDS011;68700;48.534;9.196;2023-06-22T04:54:30;18.07;;;14.03;;
12844;SDS011;68700;48.534;9.196;2023-06-22T04:57:52;16.47;;;14.33;;
12844;SDS011;68700;48.534;9.196;2023-06-22T05:01:14;15.67;;;13.43;;
12844;SDS011;68700;48.534;9.196;2023-06-22T05:04:36;14.00;;;12.53;;
12844;SDS011;68700;48.534;9.196;2023-06-22T05:08:00;15.63;;;13.47;;
12844;SDS011;68700;48.534;9.196;2023-06-22T05:11:24;18.17;;;13.87;;
12844;SDS011;68700;48.534;9.196;2023-06-22T05:14:46;17.80;;;11.97;;
12844;SDS011;68700;48.534;9.196;2023-06-22T05:18:08;17.47;;;12.20;;
12844;SDS011;68700;48.534;9.196;2023-06-22T05:21:31;14.83;;;12.10;;
12844;SDS011;68700;48.534;9.196;2023-06-22T05:24:53;15.33;;;11.87;;
12844;SDS011;68700;48.534;9.196;2023-06-22T05:28:16;13.20;;;11.10;;
12844;SDS011;68700;48.534;9.196;2023-06-22T05:31:42;13.30;;;10.40;;
12844;SDS011;68700;48.534;9.196;2023-06-22T05:35:05;14.20;;;10.60;;
12844;SDS011;68700;48.534;9.196;2023-06-22T05:38:27;11.07;;;9.90;;
12844;SDS011;68700;48.534;9.196;2023-06-22T05:41:52;12.57;;;10.43;;
12844;SDS011;68700;48.534;9.196;2023-06-22T05:45:15;11.10;;;9.87;;
12844;SDS011;68700;48.534;9.196;2023-06-22T05:48:37;11.53;;;9.90;;
12844;SDS011;68700;48.534;9.196;2023-06-22T05:51:58;11.60;;;9.67;;
12844;SDS011;68700;48.534;9.196;2023-06-22T05:55:21;12.73;;;9.77;;
12844;SDS011;68700;48.534;9.196;2023-06-22T05:58:43;13.77;;;9.20;;
12844;SDS011;68700;48.534;9.196;2023-06-22T06:02:06;10.83;;;9.03;;
12844;SDS011;68700;48.534;9.196;2023-06-22T06:05:28;10.33;;;9.23;;
12844;SDS011;68700;48.534;9.196;2023-06-22T06:08:50;13.77;;;9.00;;
12844;SDS011;68700;48.534;9.196;2023-06-22T06:12:12;9.50;;;7.23;;
12844;SDS011;68700;48.534;9.196;2023-06-22T06:15:35;10.13;;;8.30;;
12844;SDS011;68700;48.534;9.196;2023-06-22T06:18:58;11.07;;;8.23;;
12844;SDS011;68700;48.534;9.196;2023-06-22T06:22:20;10.33;;;8.37;;
12844;SDS011;68700;48.534;9.196;2023-06-22T06:25:43;10.23;;;8.30;;
12844;SDS011;68700;48.534;9.196;2023-06-22T06:29:05;9.23;;;8.33;;
12844;SDS011;68700;48.534;9.196;2023-06-22T06:32:27;10.23;;;7.87;;
12844;SDS011;68700;48.534;9.196;2023-06-22T06:35:50;8.60;;;7.70;;
12844;SDS011;68700;48.534;9.196;2023-06-22T06:39:11;10.40;;;8.23;;
12844;SDS011;68700;48.534;9.196;2023-06-22T06:42:33;10.23;;;7.97;;
12844;SDS011;68700;48.534;9.196;2023-06-22T06:45:55;11.13;;;8.00;;
12844;SDS011;68700;48.534;9.196;2023-06-22T06:49:17;8.90;;;8.00;;
12844;SDS011;68700;48.534;9.196;2023-06-22T06:52:40;7.90;;;7.10;;
12844;SDS011;68700;48.534;9.196;2023-06-22T06:56:02;8.47;;;6.57;;
12844;SDS011;68700;48.534;9.196;2023-06-22T06:59:25;9.30;;;6.70;;
12844;SDS011;68700;48.534;9.196;2023-06-22T07:02:47;9.33;;;6.27;;
12844;SDS011;68700;48.534;9.196;2023-06-22T07:06:09;10.57;;;6.20;;
12844;SDS011;68700;48.534;9.196;2023-06-22T07:09:32;7.50;;;6.37;;
12844;SDS011;68700;48.534;9.196;2023-06-22T07:12:54;8.43;;;6.60;;
12844;SDS011;68700;48.534;9.196;2023-06-22T07:16:17;9.77;;;6.60;;
12844;SDS011;68700;48.534;9.196;2023-06-22T07:19:39;6.95;;;6.15;;
12844;SDS011;68700;48.534;9.196;2023-06-22T07:23:02;9.75;;;6.45;;
12844;SDS011;68700;48.534;9.196;2023-06-22T07:26:25;9.82;;;6.30;;
12844;SDS011;68700;48.534;9.196;2023-06-22T07:29:47;10.45;;;6.95;;
12844;SDS011;68700;48.534;9.196;2023-06-22T07:33:09;8.65;;;6.95;;
12844;SDS011;68700;48.534;9.196;2023-06-22T07:36:31;11.43;;;6.60;;
12844;SDS011;68700;48.534;9.196;2023-06-22T07:39:52;7.05;;;5.90;;
12844;SDS011;68700;48.534;9.196;2023-06-22T07:43:22;9.00;;;6.78;;
12844;SDS011;68700;48.534;9.196;2023-06-22T07:46:54;9.75;;;6.22;;
12844;SDS011;68700;48.534;9.196;2023-06-22T07:50:16;9.50;;;6.75;;
12844;SDS011;68700;48.534;9.196;2023-06-22T07:53:38;8.18;;;6.45;;
12844;SDS011;68700;48.534;9.196;2023-06-22T07:57:00;11.27;;;6.72;;
12844;SDS011;68700;48.534;9.196;2023-06-22T08:00:23;8.27;;;7.10;;
12844;SDS011;68700;48.534;9.196;2023-06-22T08:03:45;10.40;;;7.45;;
12844;SDS011;68700;48.534;9.196;2023-06-22T08:07:07;9.07;;;7.25;;
12844;SDS011;68700;48.534;9.196;2023-06-22T08:10:29;10.82;;;7.47;;
12844;SDS011;68700;48.534;9.196;2023-06-22T08:13:51;10.50;;;7.85;;
12844;SDS011;68700;48.534;9.196;2023-06-22T08:17:17;8.98;;;7.18;;
12844;SDS011;68700;48.534;9.196;2023-06-22T08:20:38;8.95;;;7.47;;
12844;SDS011;68700;48.534;9.196;2023-06-22T08:24:00;11.90;;;7.32;;
12844;SDS011;68700;48.534;9.196;2023-06-22T08:27:22;11.95;;;7.13;;
12844;SDS011;68700;48.534;9.196;2023-06-22T08:30:44;7.85;;;6.15;;
12844;SDS011;68700;48.534;9.196;2023-06-22T08:34:07;9.35;;;7.32;;
12844;SDS011;68700;48.534;9.196;2023-06-22T08:37:29;8.50;;;6.57;;
12844;SDS011;68700;48.534;9.196;2023-06-22T08:40:51;10.93;;;7.07;;
12844;SDS011;68700;48.534;9.196;2023-06-22T08:44:13;9.35;;;7.28;;
12844;SDS011;68700;48.534;9.196;2023-06-22T08:47:35;9.82;;;6.47;;
12844;SDS011;68700;48.534;9.196;2023-06-22T08:50:58;10.57;;;6.72;;
12844;SDS011;68700;48.534;9.196;2023-06-22T08:54:20;11.40;;;6.50;;
12844;SDS011;68700;48.534;9.196;2023-06-22T08:57:42;8.80;;;6.53;;
12844;SDS011;68700;48.534;9.196;2023-06-22T09:01:04;13.77;;;7.68;;
12844;SDS011;68700;48.534;9.196;2023-06-22T09:04:26;8.40;;;7.32;;
12844;SDS011;68700;48.534;9.196;2023-06-22T09:07:49;10.88;;;7.13;;
12844;SDS011;68700;48.534;9.196;2023-06-22T09:11:10;9.23;;;7.35;;
12844;SDS011;68700;48.534;9.196;2023-06-22T09:14:32;11.23;;;7.75;;
12844;SDS011;68700;48.534;9.196;2023-06-22T09:17:54;9.38;;;7.75;;
12844;SDS011;68700;48.534;9.196;2023-06-22T09:21:17;11.57;;;7.55;;
12844;SDS011;68700;48.534;9.196;2023-06-22T09:24:40;9.18;;;7.40;;
12844;SDS011;68700;48.534;9.196;2023-06-22T09:28:02;9.70;;;7.40;;
12844;SDS011;68700;48.534;9.196;2023-06-22T09:31:24;11.52;;;7.70;;
12844;SDS011;68700;48.534;9.196;2023-06-22T09:34:46;8.40;;;7.38;;
12844;SDS011;68700;48.534;9.196;2023-06-22T09:38:08;9.20;;;8.10;;
12844;SDS011;68700;48.534;9.196;2023-06-22T09:41:31;12.65;;;8.30;;
12844;SDS011;68700;48.534;9.196;2023-06-22T09:44:53;12.88;;;8.00;;
12844;SDS011;68700;48.534;9.196;2023-06-22T09:48:15;9.48;;;7.75;;
12844;SDS011;68700;48.534;9.196;2023-06-22T09:51:37;12.02;;;8.65;;
12844;SDS011;68700;48.534;9.196;2023-06-22T09:54:59;9.98;;;8.57;;
12844;SDS011;68700;48.534;9.196;2023-06-22T09:58:22;9.90;;;8.15;;
12844;SDS011;68700;48.534;9.196;2023-06-22T10:01:44;10.05;;;7.90;;
12844;SDS011;68700;48.534;9.196;2023-06-22T10:05:06;8.85;;;7.95;;
12844;SDS011;68700;48.534;9.196;2023-06-22T10:08:28;10.73;;;8.20;;
12844;SDS011;68700;48.534;9.196;2023-06-22T10:11:50;10.38;;;8.38;;
12844;SDS011;68700;48.534;9.196;2023-06-22T10:15:13;10.95;;;7.65;;
12844;SDS011;68700;48.534;9.196;2023-06-22T10:18:35;10.60;;;7.88;;
12844;SDS011;68700;48.534;9.196;2023-06-22T10:21:57;9.95;;;8.05;;
12844;SDS011;68700;48.534;9.196;2023-06-22T10:25:19;11.70;;;8.35;;
12844;SDS011;68700;48.534;9.196;2023-06-22T10:28:41;9.27;;;8.30;;
12844;SDS011;68700;48.534;9.196;2023-06-22T10:32:05;11.00;;;8.88;;
12844;SDS011;68700;48.534;9.196;2023-06-22T10:35:27;11.32;;;8.55;;
12844;SDS011;68700;48.534;9.196;2023-06-22T10:38:49;11.50;;;8.85;;
12844;SDS011;68700;48.534;9.196;2023-06-22T10:42:12;9.65;;;8.40;;
12844;SDS011;68700;48.534;9.196;2023-06-22T10:45:34;11.32;;;9.57;;
12844;SDS011;68700;48.534;9.196;2023-06-22T10:48:57;11.27;;;9.02;;
12844;SDS011;68700;48.534;9.196;2023-06-22T10:52:19;16.30;;;9.40;;
12844;SDS011;68700;48.534;9.196;2023-06-22T10:55:41;11.15;;;8.98;;
12844;SDS011;68700;48.534;9.196;2023-06-22T10:59:03;12.75;;;8.20;;
12844;SDS011;68700;48.534;9.196;2023-06-22T11:02:25;11.23;;;7.93;;
12844;SDS011;68700;48.534;9.196;2023-06-22T11:05:49;10.75;;;7.57;;
12844;SDS011;68700;48.534;9.196;2023-06-22T11:09:11;12.80;;;8.73;;
12844;SDS011;68700;48.534;9.196;2023-06-22T11:12:38;8.70;;;7.57;;
12844;SDS011;68700;48.534;9.196;2023-06-22T11:16:00;11.77;;;8.65;;
12844;SDS011;68700;48.534;9.196;2023-06-22T11:19:22;12.18;;;7.85;;
12844;SDS011;68700;48.534;9.196;2023-06-22T11:22:46;12.73;;;8.70;;
12844;SDS011;68700;48.534;9.196;2023-06-22T11:26:07;10.75;;;8.63;;
12844;SDS011;68700;48.534;9.196;2023-06-22T11:29:29;12.30;;;8.30;;
12844;SDS011;68700;48.534;9.196;2023-06-22T11:32:51;13.15;;;8.65;;
12844;SDS011;68700;48.534;9.196;2023-06-22T11:36:13;12.88;;;8.35;;
12844;SDS011;68700;48.534;9.196;2023-06-22T11:39:37;11.73;;;8.10;;
12844;SDS011;68700;48.534;9.196;2023-06-22T11:42:58;12.80;;;8.77;;
12844;SDS011;68700;48.534;9.196;2023-06-22T11:46:20;11.15;;;7.95;;
12844;SDS011;68700;48.534;9.196;2023-06-22T11:49:42;9.98;;;7.53;;
12844;SDS011;68700;48.534;9.196;2023-06-22T11:53:04;8.93;;;7.55;;
12844;SDS011;68700;48.534;9.196;2023-06-22T11:56:27;11.00;;;7.85;;
12844;SDS011;68700;48.534;9.196;2023-06-22T11:59:49;10.80;;;8.05;;
12844;SDS011;68700;48.534;9.196;2023-06-22T12:03:10;11.23;;;7.78;;
12844;SDS011;68700;48.534;9.196;2023-06-22T12:06:35;12.68;;;7.82;;
12844;SDS011;68700;48.534;9.196;2023-06-22T12:10:01;12.93;;;7.60;;
12844;SDS011;68700;48.534;9.196;2023-06-22T12:13:25;12.88;;;8.15;;
12844;SDS011;68700;48.534;9.196;2023-06-22T12:16:47;15.35;;;7.68;;
12844;SDS011;68700;48.534;9.196;2023-06-22T12:20:09;13.30;;;7.82;;
12844;SDS011;68700;48.534;9.196;2023-06-22T12:23:31;13.35;;;7.30;;
12844;SDS011;68700;48.534;9.196;2023-06-22T12:26:53;8.90;;;7.47;;
12844;SDS011;68700;48.534;9.196;2023-06-22T12:30:16;11.55;;;7.97;;
12844;SDS011;68700;48.534;9.196;2023-06-22T12:33:38;12.57;;;7.57;;
12844;SDS011;68700;48.534;9.196;2023-06-22T12:37:00;12.38;;;7.43;;
12844;SDS011;68700;48.534;9.196;2023-06-22T12:40:22;11.27;;;7.90;;
12844;SDS011;68700;48.534;9.196;2023-06-22T12:43:46;11.52;;;7.40;;
12844;SDS011;68700;48.534;9.196;2023-06-22T12:47:09;9.55;;;7.25;;
12844;SDS011;68700;48.534;9.196;2023-06-22T12:50:31;10.63;;;7.85;;
12844;SDS011;68700;48.534;9.196;2023-06-22T12:53:53;12.30;;;7.55;;
12844;SDS011;68700;48.534;9.196;2023-06-22T12:57:14;10.10;;;7.47;;
12844;SDS011;68700;48.534;9.196;2023-06-22T13:00:38;10.10;;;7.35;;
12844;SDS011;68700;48.534;9.196;2023-06-22T13:04:01;12.70;;;7.75;;
12844;SDS011;68700;48.534;9.196;2023-06-22T13:07:23;11.63;;;7.95;;
12844;SDS011;68700;48.534;9.196;2023-06-22T13:10:45;12.90;;;8.07;;
12844;SDS011;68700;48.534;9.196;2023-06-22T13:14:07;14.15;;;7.72;;
12844;SDS011;68700;48.534;9.196;2023-06-22T13:17:29;13.88;;;8.00;;
12844;SDS011;68700;48.534;9.196;2023-06-22T13:20:52;9.35;;;7.40;;
12844;SDS011;68700;48.534;9.196;2023-06-22T13:24:14;10.73;;;7.18;;
12844;SDS011;68700;48.534;9.196;2023-06-22T13:27:37;9.65;;;7.20;;
12844;SDS011;68700;48.534;9.196;2023-06-22T13:30:59;13.35;;;7.80;;
12844;SDS011;68700;48.534;9.196;2023-06-22T13:34:20;11.10;;;7.35;;
12844;SDS011;68700;48.534;9.196;2023-06-22T13:37:44;9.18;;;7.55;;
12844;SDS011;68700;48.534;9.196;2023-06-22T13:41:05;11.93;;;7.53;;
12844;SDS011;68700;48.534;9.196;2023-06-22T13:44:27;14.18;;;7.82;;
12844;SDS011;68700;48.534;9.196;2023-06-22T13:47:49;14.73;;;7.72;;
12844;SDS011;68700;48.534;9.196;2023-06-22T13:51:11;10.60;;;7.78;;
12844;SDS011;68700;48.534;9.196;2023-06-22T13:54:34;10.38;;;7.60;;
12844;SDS011;68700;48.534;9.196;2023-06-22T13:57:56;14.60;;;7.30;;
12844;SDS011;68700;48.534;9.196;2023-06-22T14:01:18;13.68;;;8.25;;
12844;SDS011;68700;48.534;9.196;2023-06-22T14:04:40;12.18;;;7.47;;
12844;SDS011;68700;48.534;9.196;2023-06-22T14:08:02;11.90;;;7.32;;
12844;SDS011;68700;48.534;9.196;2023-06-22T14:11:25;14.07;;;7.47;;
12844;SDS011;68700;48.534;9.196;2023-06-22T14:14:47;11.60;;;7.60;;
12844;SDS011;68700;48.534;9.196;2023-06-22T14:18:09;15.45;;;7.40;;
12844;SDS011;68700;48.534;9.196;2023-06-22T14:21:30;14.05;;;7.07;;
12844;SDS011;68700;48.534;9.196;2023-06-22T14:24:52;10.45;;;7.15;;
12844;SDS011;68700;48.534;9.196;2023-06-22T14:28:17;10.25;;;8.27;;
12844;SDS011;68700;48.534;9.196;2023-06-22T14:31:39;11.43;;;7.95;;
12844;SDS011;68700;48.534;9.196;2023-06-22T14:35:00;11.65;;;8.23;;
12844;SDS011;68700;48.534;9.196;2023-06-22T14:38:22;16.80;;;8.15;;
12844;SDS011;68700;48.534;9.196;2023-06-22T14:41:44;13.55;;;8.20;;
12844;SDS011;68700;48.534;9.196;2023-06-22T14:45:08;12.73;;;8.02;;
12844;SDS011;68700;48.534;9.196;2023-06-22T14:48:30;13.73;;;8.20;;
12844;SDS011;68700;48.534;9.196;2023-06-22T14:51:52;14.05;;;8.25;;
12844;SDS011;68700;48.534;9.196;2023-06-22T14:55:13;13.00;;;7.80;;
12844;SDS011;68700;48.534;9.196;2023-06-22T14:58:35;12.57;;;7.95;;
12844;SDS011;68700;48.534;9.196;2023-06-22T15:02:01;11.65;;;8.00;;
12844;SDS011;68700;48.534;9.196;2023-06-22T15:05:23;10.60;;;7.10;;
12844;SDS011;68700;48.534;9.196;2023-06-22T15:08:45;12.50;;;6.88;;
12844;SDS011;68700;48.534;9.196;2023-06-22T15:12:07;13.63;;;7.32;;
12844;SDS011;68700;48.534;9.196;2023-06-22T15:15:31;12.55;;;6.78;;
12844;SDS011;68700;48.534;9.196;2023-06-22T15:18:55;12.48;;;7.35;;
12844;SDS011;68700;48.534;9.196;2023-06-22T15:22:16;10.40;;;7.45;;
12844;SDS011;68700;48.534;9.196;2023-06-22T15:25:39;12.88;;;6.20;;
12844;SDS011;68700;48.534;9.196;2023-06-22T15:29:02;12.10;;;5.25;;
12844;SDS011;68700;48.534;9.196;2023-06-22T15:32:24;10.27;;;4.88;;
12844;SDS011;68700;48.534;9.196;2023-06-22T15:35:48;12.50;;;4.60;;
12844;SDS011;68700;48.534;9.196;2023-06-22T15:39:09;13.32;;;4.80;;
12844;SDS011;68700;48.534;9.196;2023-06-22T15:42:31;11.10;;;4.20;;
12844;SDS011;68700;48.534;9.196;2023-06-22T15:45:53;12.65;;;4.78;;
12844;SDS011;68700;48.534;9.196;2023-06-22T15:49:15;10.10;;;4.03;;
12844;SDS011;68700;48.534;9.196;2023-06-22T15:52:38;11.07;;;4.18;;
12844;SDS011;68700;48.534;9.196;2023-06-22T15:56:00;9.60;;;4.13;;
12844;SDS011;68700;48.534;9.196;2023-06-22T15:59:23;13.93;;;4.30;;
12844;SDS011;68700;48.534;9.196;2023-06-22T16:02:45;11.75;;;4.72;;
12844;SDS011;68700;48.534;9.196;2023-06-22T16:06:08;14.47;;;4.53;;
12844;SDS011;68700;48.534;9.196;2023-06-22T16:09:31;8.63;;;4.43;;
12844;SDS011;68700;48.534;9.196;2023-06-22T16:12:53;8.37;;;4.77;;
12844;SDS011;68700;48.534;9.196;2023-06-22T16:16:14;12.00;;;4.73;;
12844;SDS011;68700;48.534;9.196;2023-06-22T16:19:36;9.70;;;4.77;;
12844;SDS011;68700;48.534;9.196;2023-06-22T16:22:58;8.83;;;4.60;;
12844;SDS011;68700;48.534;9.196;2023-06-22T16:26:21;11.80;;;4.50;;
12844;SDS011;68700;48.534;9.196;2023-06-22T16:29:43;8.33;;;4.40;;
12844;SDS011;68700;48.534;9.196;2023-06-22T16:33:05;13.27;;;4.40;;
12844;SDS011;68700;48.534;9.196;2023-06-22T16:36:27;13.57;;;4.47;;
12844;SDS011;68700;48.534;9.196;2023-06-22T16:39:49;13.93;;;4.33;;
12844;SDS011;68700;48.534;9.196;2023-06-22T16:43:12;12.43;;;3.97;;
12844;SDS011;68700;48.534;9.196;2023-06-22T16:46:34;11.37;;;4.60;;
12844;SDS011;68700;48.534;9.196;2023-06-22T16:49:55;12.80;;;4.17;;
12844;SDS011;68700;48.534;9.196;2023-06-22T16:53:17;12.53;;;5.10;;
12844;SDS011;68700;48.534;9.196;2023-06-22T16:56:42;12.80;;;4.73;;
12844;SDS011;68700;48.534;9.196;2023-06-22T17:00:07;14.73;;;5.43;;
12844;SDS011;68700;48.534;9.196;2023-06-22T17:03:33;14.90;;;5.73;;
12844;SDS011;68700;48.534;9.196;2023-06-22T17:06:58;14.20;;;4.83;;
12844;SDS011;68700;48.534;9.196;2023-06-22T17:10:23;11.70;;;4.50;;
12844;SDS011;68700;48.534;9.196;2023-06-22T17:13:45;14.00;;;4.87;;
12844;SDS011;68700;48.534;9.196;2023-06-22T17:17:11;9.73;;;4.60;;
12844;SDS011;68700;48.534;9.196;2023-06-22T17:20:36;9.70;;;4.70;;
12844;SDS011;68700;48.534;9.196;2023-06-22T17:23:58;11.57;;;4.70;;
12844;SDS011;68700;48.534;9.196;2023-06-22T17:27:26;14.13;;;4.63;;
12844;SDS011;68700;48.534;9.196;2023-06-22T17:30:52;13.43;;;4.73;;
12844;SDS011;68700;48.534;9.196;2023-06-22T17:34:33;8.90;;;4.73;;
12844;SDS011;68700;48.534;9.196;2023-06-22T17:37:55;7.93;;;4.57;;
12844;SDS011;68700;48.534;9.196;2023-06-22T17:41:17;6.97;;;4.00;;
12844;SDS011;68700;48.534;9.196;2023-06-22T17:44:39;7.10;;;3.47;;
12844;SDS011;68700;48.534;9.196;2023-06-22T17:48:02;8.40;;;3.73;;
12844;SDS011;68700;48.534;9.196;2023-06-22T17:51:30;9.97;;;3.80;;
12844;SDS011;68700;48.534;9.196;2023-06-22T17:54:52;10.60;;;3.70;;
12844;SDS011;68700;48.534;9.196;2023-06-22T17:58:13;8.00;;;3.70;;
12844;SDS011;68700;48.534;9.196;2023-06-22T18:01:37;8.00;;;3.83;;
12844;SDS011;68700;48.534;9.196;2023-06-22T18:05:02;9.03;;;3.40;;
12844;SDS011;68700;48.534;9.196;2023-06-22T18:08:28;9.23;;;3.70;;
12844;SDS011;68700;48.534;9.196;2023-06-22T18:11:49;10.00;;;3.57;;
12844;SDS011;68700;48.534;9.196;2023-06-22T18:15:11;7.07;;;3.20;;
12844;SDS011;68700;48.534;9.196;2023-06-22T18:18:34;6.93;;;3.10;;
12844;SDS011;68700;48.534;9.196;2023-06-22T18:21:57;7.70;;;3.37;;
12844;SDS011;68700;48.534;9.196;2023-06-22T18:25:20;7.93;;;3.30;;
12844;SDS011;68700;48.534;9.196;2023-06-22T18:28:42;5.83;;;2.77;;
12844;SDS011;68700;48.534;9.196;2023-06-22T18:32:05;8.63;;;3.30;;
12844;SDS011;68700;48.534;9.196;2023-06-22T18:35:27;7.17;;;3.37;;
12844;SDS011;68700;48.534;9.196;2023-06-22T18:38:50;5.80;;;3.47;;
12844;SDS011;68700;48.534;9.196;2023-06-22T18:42:17;9.93;;;3.37;;
12844;SDS011;68700;48.534;9.196;2023-06-22T18:45:40;10.63;;;3.40;;
12844;SDS011;68700;48.534;9.196;2023-06-22T18:49:03;8.97;;;3.30;;
12844;SDS011;68700;48.534;9.196;2023-06-22T18:52:32;7.57;;;3.73;;
12844;SDS011;68700;48.534;9.196;2023-06-22T18:56:09;10.23;;;3.13;;
12844;SDS011;68700;48.534;9.196;2023-06-22T18:59:47;4.20;;;2.93;;
12844;SDS011;68700;48.534;9.196;2023-06-22T19:03:22;8.13;;;3.00;;
12844;SDS011;68700;48.534;9.196;2023-06-22T19:06:54;7.70;;;3.50;;
12844;SDS011;68700;48.534;9.196;2023-06-22T19:10:22;6.77;;;3.37;;
12844;SDS011;68700;48.534;9.196;2023-06-22T19:13:45;8.03;;;3.17;;
12844;SDS011;68700;48.534;9.196;2023-06-22T19:17:10;8.40;;;3.70;;
12844;SDS011;68700;48.534;9.196;2023-06-22T19:20:39;7.43;;;3.47;;
12844;SDS011;68700;48.534;9.196;2023-06-22T19:24:01;4.90;;;3.00;;
12844;SDS011;68700;48.534;9.196;2023-06-22T19:27:27;7.57;;;3.30;;
12844;SDS011;68700;48.534;9.196;2023-06-22T19:30:51;3.63;;;2.90;;
12844;SDS011;68700;48.534;9.196;2023-06-22T19:34:16;6.77;;;3.37;;
12844;SDS011;68700;48.534;9.196;2023-06-22T19:37:37;9.57;;;3.47;;
12844;SDS011;68700;48.534;9.196;2023-06-22T19:41:00;7.93;;;3.50;;
12844;SDS011;68700;48.534;9.196;2023-06-22T19:44:22;4.67;;;2.73;;
12844;SDS011;68700;48.534;9.196;2023-06-22T19:47:55;7.77;;;3.70;;
12844;SDS011;68700;48.534;9.196;2023-06-22T19:51:19;9.30;;;3.77;;
12844;SDS011;68700;48.534;9.196;2023-06-22T19:54:43;6.30;;;3.03;;
12844;SDS011;68700;48.534;9.196;2023-06-22T19:58:04;6.53;;;2.93;;
12844;SDS011;68700;48.534;9.196;2023-06-22T20:01:26;4.70;;;2.70;;
12844;SDS011;68700;48.534;9.196;2023-06-22T20:04:49;5.43;;;2.80;;
12844;SDS011;68700;48.534;9.196;2023-06-22T20:08:12;3.70;;;2.50;;